Leisure City, Florida
Current Conditions -  °F | °C
As of 11:33 AM on Monday 26 Jan 2015 (Local Time) from KHST Reporting Station
Light Rain Light Rain  
Wind Chill: 73°   Ceiling: 3600
Heat Index: 73°   Visibility: 6mi
Dew Point: 61°   Wind: 29mph
Humidity: 65%   Direction: 290°WNW
Pressure: 29.96"   Gusts: 40mph
Location:  25.5°N, 80.43°W
Report Text: KHST 261633Z AUTO 29025G35KT 6SM -RA BKN036 BKN046 OVC070 23/16 A2996 RMK AO2 WSHFT 25
Loading
Personal Weather Stations






























Interactive Weather Map New forecast layout! Learn more

10-Day Weather Forecast

Advertisements
Track Severe Weather on mobile